sensor_id;sensor_type;location;lat;lon;timestamp;P1;durP1;ratioP1;P2;durP2;ratioP2
25437;SDS011;13364;49.084;9.978;2022-07-23T00:01:13;8.15;;;7.35;;
25437;SDS011;13364;49.084;9.978;2022-07-23T00:03:50;11.57;;;8.00;;
25437;SDS011;13364;49.084;9.978;2022-07-23T00:06:20;10.05;;;7.78;;
25437;SDS011;13364;49.084;9.978;2022-07-23T00:08:48;9.93;;;7.70;;
25437;SDS011;13364;49.084;9.978;2022-07-23T00:11:15;8.15;;;7.00;;
25437;SDS011;13364;49.084;9.978;2022-07-23T00:13:43;10.23;;;8.00;;
25437;SDS011;13364;49.084;9.978;2022-07-23T00:16:10;8.23;;;7.32;;
25437;SDS011;13364;49.084;9.978;2022-07-23T00:18:37;10.00;;;7.45;;
25437;SDS011;13364;49.084;9.978;2022-07-23T00:21:05;8.23;;;6.80;;
25437;SDS011;13364;49.084;9.978;2022-07-23T00:23:33;7.72;;;6.93;;
25437;SDS011;13364;49.084;9.978;2022-07-23T00:26:00;10.07;;;7.20;;
25437;SDS011;13364;49.084;9.978;2022-07-23T00:28:27;8.70;;;6.80;;
25437;SDS011;13364;49.084;9.978;2022-07-23T00:30:54;10.70;;;7.47;;
25437;SDS011;13364;49.084;9.978;2022-07-23T00:33:21;9.38;;;7.00;;
25437;SDS011;13364;49.084;9.978;2022-07-23T00:35:48;7.75;;;6.35;;
25437;SDS011;13364;49.084;9.978;2022-07-23T00:38:15;7.90;;;6.78;;
25437;SDS011;13364;49.084;9.978;2022-07-23T00:40:42;7.97;;;6.60;;
25437;SDS011;13364;49.084;9.978;2022-07-23T00:43:09;7.38;;;6.20;;
25437;SDS011;13364;49.084;9.978;2022-07-23T00:45:37;7.90;;;6.57;;
25437;SDS011;13364;49.084;9.978;2022-07-23T00:48:05;8.07;;;6.65;;
25437;SDS011;13364;49.084;9.978;2022-07-23T00:50:32;8.98;;;6.40;;
25437;SDS011;13364;49.084;9.978;2022-07-23T00:52:59;11.00;;;6.32;;
25437;SDS011;13364;49.084;9.978;2022-07-23T00:55:26;6.85;;;6.03;;
25437;SDS011;13364;49.084;9.978;2022-07-23T00:57:53;8.20;;;6.30;;
25437;SDS011;13364;49.084;9.978;2022-07-23T01:00:24;8.23;;;6.47;;
25437;SDS011;13364;49.084;9.978;2022-07-23T01:02:51;6.68;;;5.82;;
25437;SDS011;13364;49.084;9.978;2022-07-23T01:05:18;7.63;;;6.15;;
25437;SDS011;13364;49.084;9.978;2022-07-23T01:07:49;10.07;;;6.18;;
25437;SDS011;13364;49.084;9.978;2022-07-23T01:10:21;7.60;;;5.70;;
25437;SDS011;13364;49.084;9.978;2022-07-23T01:15:30;7.82;;;5.53;;
25437;SDS011;13364;49.084;9.978;2022-07-23T01:17:58;5.50;;;4.97;;
25437;SDS011;13364;49.084;9.978;2022-07-23T01:20:26;6.43;;;5.60;;
25437;SDS011;13364;49.084;9.978;2022-07-23T01:22:53;5.78;;;5.28;;
25437;SDS011;13364;49.084;9.978;2022-07-23T01:25:21;7.45;;;5.85;;
25437;SDS011;13364;49.084;9.978;2022-07-23T01:28:02;7.35;;;5.50;;
25437;SDS011;13364;49.084;9.978;2022-07-23T01:30:32;7.22;;;5.45;;
25437;SDS011;13364;49.084;9.978;2022-07-23T01:33:01;8.13;;;5.72;;
25437;SDS011;13364;49.084;9.978;2022-07-23T01:35:28;5.78;;;5.28;;
25437;SDS011;13364;49.084;9.978;2022-07-23T01:38:00;7.25;;;5.00;;
25437;SDS011;13364;49.084;9.978;2022-07-23T01:40:27;5.32;;;4.82;;
25437;SDS011;13364;49.084;9.978;2022-07-23T01:42:55;8.40;;;4.80;;
25437;SDS011;13364;49.084;9.978;2022-07-23T01:45:23;5.57;;;4.70;;
25437;SDS011;13364;49.084;9.978;2022-07-23T01:48:04;6.63;;;5.03;;
25437;SDS011;13364;49.084;9.978;2022-07-23T01:50:38;5.55;;;5.05;;
25437;SDS011;13364;49.084;9.978;2022-07-23T01:53:20;6.63;;;5.30;;
25437;SDS011;13364;49.084;9.978;2022-07-23T01:55:47;8.48;;;4.70;;
25437;SDS011;13364;49.084;9.978;2022-07-23T01:58:14;6.70;;;4.30;;
25437;SDS011;13364;49.084;9.978;2022-07-23T02:00:41;5.55;;;4.57;;
25437;SDS011;13364;49.084;9.978;2022-07-23T02:03:09;5.60;;;4.72;;
25437;SDS011;13364;49.084;9.978;2022-07-23T02:05:36;4.97;;;4.43;;
25437;SDS011;13364;49.084;9.978;2022-07-23T02:08:03;8.02;;;4.68;;
25437;SDS011;13364;49.084;9.978;2022-07-23T02:10:34;5.72;;;4.63;;
25437;SDS011;13364;49.084;9.978;2022-07-23T02:13:02;5.57;;;5.05;;
25437;SDS011;13364;49.084;9.978;2022-07-23T02:15:29;7.55;;;4.60;;
25437;SDS011;13364;49.084;9.978;2022-07-23T02:17:57;5.13;;;4.63;;
25437;SDS011;13364;49.084;9.978;2022-07-23T02:20:24;7.25;;;4.88;;
25437;SDS011;13364;49.084;9.978;2022-07-23T02:22:52;5.85;;;4.60;;
25437;SDS011;13364;49.084;9.978;2022-07-23T02:25:19;6.18;;;4.70;;
25437;SDS011;13364;49.084;9.978;2022-07-23T02:27:46;8.75;;;5.05;;
25437;SDS011;13364;49.084;9.978;2022-07-23T02:30:13;5.47;;;4.82;;
25437;SDS011;13364;49.084;9.978;2022-07-23T02:32:40;5.20;;;4.55;;
25437;SDS011;13364;49.084;9.978;2022-07-23T02:35:09;4.88;;;4.47;;
25437;SDS011;13364;49.084;9.978;2022-07-23T02:37:36;5.53;;;5.03;;
25437;SDS011;13364;49.084;9.978;2022-07-23T02:40:04;6.45;;;4.82;;
25437;SDS011;13364;49.084;9.978;2022-07-23T02:42:34;5.95;;;4.88;;
25437;SDS011;13364;49.084;9.978;2022-07-23T02:45:02;6.18;;;5.20;;
25437;SDS011;13364;49.084;9.978;2022-07-23T02:47:29;6.80;;;4.75;;
25437;SDS011;13364;49.084;9.978;2022-07-23T02:49:59;7.45;;;5.55;;
25437;SDS011;13364;49.084;9.978;2022-07-23T02:52:28;6.75;;;5.72;;
25437;SDS011;13364;49.084;9.978;2022-07-23T02:54:55;5.53;;;5.03;;
25437;SDS011;13364;49.084;9.978;2022-07-23T03:01:49;5.68;;;4.90;;
25437;SDS011;13364;49.084;9.978;2022-07-23T03:04:17;5.22;;;4.70;;
25437;SDS011;13364;49.084;9.978;2022-07-23T03:06:44;5.80;;;5.22;;
25437;SDS011;13364;49.084;9.978;2022-07-23T03:09:11;7.20;;;4.45;;
25437;SDS011;13364;49.084;9.978;2022-07-23T03:11:39;5.35;;;4.65;;
25437;SDS011;13364;49.084;9.978;2022-07-23T03:14:06;5.15;;;4.65;;
25437;SDS011;13364;49.084;9.978;2022-07-23T03:16:35;5.43;;;4.60;;
25437;SDS011;13364;49.084;9.978;2022-07-23T03:19:03;5.47;;;4.72;;
25437;SDS011;13364;49.084;9.978;2022-07-23T03:21:31;6.53;;;5.13;;
25437;SDS011;13364;49.084;9.978;2022-07-23T03:23:59;7.18;;;4.50;;
25437;SDS011;13364;49.084;9.978;2022-07-23T03:26:28;6.67;;;4.97;;
25437;SDS011;13364;49.084;9.978;2022-07-23T03:28:55;5.38;;;4.88;;
25437;SDS011;13364;49.084;9.978;2022-07-23T03:31:22;5.15;;;4.65;;
25437;SDS011;13364;49.084;9.978;2022-07-23T03:33:49;5.03;;;4.55;;
25437;SDS011;13364;49.084;9.978;2022-07-23T03:36:16;5.78;;;5.03;;
25437;SDS011;13364;49.084;9.978;2022-07-23T03:38:47;5.53;;;4.85;;
25437;SDS011;13364;49.084;9.978;2022-07-23T03:41:14;5.90;;;5.18;;
25437;SDS011;13364;49.084;9.978;2022-07-23T03:43:41;5.72;;;5.22;;
25437;SDS011;13364;49.084;9.978;2022-07-23T03:46:10;6.05;;;5.45;;
25437;SDS011;13364;49.084;9.978;2022-07-23T03:48:37;6.65;;;5.55;;
25437;SDS011;13364;49.084;9.978;2022-07-23T03:51:05;6.35;;;4.88;;
25437;SDS011;13364;49.084;9.978;2022-07-23T03:53:32;5.78;;;4.93;;
25437;SDS011;13364;49.084;9.978;2022-07-23T03:56:00;8.82;;;5.90;;
25437;SDS011;13364;49.084;9.978;2022-07-23T03:58:29;9.25;;;5.38;;
25437;SDS011;13364;49.084;9.978;2022-07-23T04:00:56;7.05;;;5.20;;
25437;SDS011;13364;49.084;9.978;2022-07-23T04:03:23;6.53;;;5.70;;
25437;SDS011;13364;49.084;9.978;2022-07-23T04:05:51;6.22;;;5.63;;
25437;SDS011;13364;49.084;9.978;2022-07-23T04:08:20;6.85;;;6.05;;
25437;SDS011;13364;49.084;9.978;2022-07-23T04:10:50;6.03;;;5.43;;
25437;SDS011;13364;49.084;9.978;2022-07-23T04:13:18;7.30;;;6.05;;
25437;SDS011;13364;49.084;9.978;2022-07-23T04:15:46;6.38;;;5.15;;
25437;SDS011;13364;49.084;9.978;2022-07-23T04:18:14;6.17;;;5.17;;
25437;SDS011;13364;49.084;9.978;2022-07-23T04:20:53;6.43;;;5.82;;
25437;SDS011;13364;49.084;9.978;2022-07-23T04:23:21;5.38;;;4.88;;
25437;SDS011;13364;49.084;9.978;2022-07-23T04:25:51;7.32;;;5.30;;
25437;SDS011;13364;49.084;9.978;2022-07-23T04:28:18;6.70;;;6.05;;
25437;SDS011;13364;49.084;9.978;2022-07-23T04:30:45;7.82;;;6.18;;
25437;SDS011;13364;49.084;9.978;2022-07-23T04:33:15;6.15;;;5.53;;
25437;SDS011;13364;49.084;9.978;2022-07-23T04:35:43;6.68;;;5.65;;
25437;SDS011;13364;49.084;9.978;2022-07-23T04:38:17;7.30;;;6.00;;
25437;SDS011;13364;49.084;9.978;2022-07-23T04:40:47;6.85;;;5.88;;
25437;SDS011;13364;49.084;9.978;2022-07-23T04:43:14;6.13;;;5.60;;
25437;SDS011;13364;49.084;9.978;2022-07-23T04:45:46;6.82;;;5.97;;
25437;SDS011;13364;49.084;9.978;2022-07-23T04:48:13;7.32;;;6.03;;
25437;SDS011;13364;49.084;9.978;2022-07-23T04:50:42;9.23;;;6.05;;
25437;SDS011;13364;49.084;9.978;2022-07-23T04:53:37;9.10;;;6.18;;
25437;SDS011;13364;49.084;9.978;2022-07-23T04:56:04;7.13;;;5.95;;
25437;SDS011;13364;49.084;9.978;2022-07-23T04:58:32;6.93;;;6.25;;
25437;SDS011;13364;49.084;9.978;2022-07-23T05:00:59;6.88;;;5.78;;
25437;SDS011;13364;49.084;9.978;2022-07-23T05:03:28;6.35;;;5.60;;
25437;SDS011;13364;49.084;9.978;2022-07-23T05:05:56;6.80;;;6.13;;
25437;SDS011;13364;49.084;9.978;2022-07-23T05:08:23;7.15;;;6.07;;
25437;SDS011;13364;49.084;9.978;2022-07-23T05:10:53;9.77;;;6.18;;
25437;SDS011;13364;49.084;9.978;2022-07-23T05:13:20;7.18;;;6.22;;
25437;SDS011;13364;49.084;9.978;2022-07-23T05:15:50;7.45;;;6.05;;
25437;SDS011;13364;49.084;9.978;2022-07-23T05:18:18;6.68;;;5.70;;
25437;SDS011;13364;49.084;9.978;2022-07-23T05:20:45;7.18;;;6.18;;
25437;SDS011;13364;49.084;9.978;2022-07-23T05:23:16;6.93;;;6.25;;
25437;SDS011;13364;49.084;9.978;2022-07-23T05:25:43;12.13;;;6.22;;
25437;SDS011;13364;49.084;9.978;2022-07-23T05:28:11;10.63;;;6.32;;
25437;SDS011;13364;49.084;9.978;2022-07-23T05:30:38;6.80;;;6.20;;
25437;SDS011;13364;49.084;9.978;2022-07-23T05:33:08;9.32;;;6.25;;
25437;SDS011;13364;49.084;9.978;2022-07-23T05:35:36;8.80;;;5.88;;
25437;SDS011;13364;49.084;9.978;2022-07-23T05:38:20;10.40;;;6.28;;
25437;SDS011;13364;49.084;9.978;2022-07-23T05:40:48;6.50;;;5.85;;
25437;SDS011;13364;49.084;9.978;2022-07-23T05:43:16;6.28;;;5.75;;
25437;SDS011;13364;49.084;9.978;2022-07-23T05:45:44;9.15;;;6.88;;
25437;SDS011;13364;49.084;9.978;2022-07-23T05:48:11;6.88;;;6.15;;
25437;SDS011;13364;49.084;9.978;2022-07-23T05:50:48;7.25;;;5.53;;
25437;SDS011;13364;49.084;9.978;2022-07-23T05:53:27;6.70;;;6.00;;
25437;SDS011;13364;49.084;9.978;2022-07-23T05:55:59;7.55;;;6.40;;
25437;SDS011;13364;49.084;9.978;2022-07-23T05:58:28;8.45;;;6.82;;
25437;SDS011;13364;49.084;9.978;2022-07-23T06:00:55;6.78;;;6.18;;
25437;SDS011;13364;49.084;9.978;2022-07-23T06:03:22;7.40;;;6.65;;
25437;SDS011;13364;49.084;9.978;2022-07-23T06:05:50;7.60;;;6.45;;
25437;SDS011;13364;49.084;9.978;2022-07-23T06:08:17;7.03;;;6.32;;
25437;SDS011;13364;49.084;9.978;2022-07-23T06:10:44;7.00;;;6.30;;
25437;SDS011;13364;49.084;9.978;2022-07-23T06:13:11;7.05;;;6.43;;
25437;SDS011;13364;49.084;9.978;2022-07-23T06:15:38;7.72;;;6.68;;
25437;SDS011;13364;49.084;9.978;2022-07-23T06:18:06;7.22;;;6.47;;
25437;SDS011;13364;49.084;9.978;2022-07-23T06:20:33;8.82;;;6.72;;
25437;SDS011;13364;49.084;9.978;2022-07-23T06:23:00;7.88;;;7.07;;
25437;SDS011;13364;49.084;9.978;2022-07-23T06:25:27;6.65;;;6.03;;
25437;SDS011;13364;49.084;9.978;2022-07-23T06:27:54;6.78;;;6.18;;
25437;SDS011;13364;49.084;9.978;2022-07-23T06:30:22;7.18;;;6.47;;
25437;SDS011;13364;49.084;9.978;2022-07-23T06:32:50;8.50;;;6.60;;
25437;SDS011;13364;49.084;9.978;2022-07-23T06:35:17;8.48;;;6.72;;
25437;SDS011;13364;49.084;9.978;2022-07-23T06:37:46;7.65;;;6.50;;
25437;SDS011;13364;49.084;9.978;2022-07-23T06:40:14;7.75;;;7.03;;
25437;SDS011;13364;49.084;9.978;2022-07-23T06:42:41;7.65;;;6.88;;
25437;SDS011;13364;49.084;9.978;2022-07-23T06:45:15;10.13;;;7.18;;
25437;SDS011;13364;49.084;9.978;2022-07-23T06:47:42;8.07;;;7.28;;
25437;SDS011;13364;49.084;9.978;2022-07-23T06:50:09;9.32;;;7.18;;
25437;SDS011;13364;49.084;9.978;2022-07-23T06:52:36;9.20;;;6.75;;
25437;SDS011;13364;49.084;9.978;2022-07-23T06:55:08;7.80;;;6.75;;
25437;SDS011;13364;49.084;9.978;2022-07-23T06:57:36;8.00;;;6.63;;
25437;SDS011;13364;49.084;9.978;2022-07-23T07:00:05;7.18;;;6.47;;
25437;SDS011;13364;49.084;9.978;2022-07-23T07:02:33;9.57;;;7.55;;
25437;SDS011;13364;49.084;9.978;2022-07-23T07:05:00;10.18;;;7.65;;
25437;SDS011;13364;49.084;9.978;2022-07-23T07:07:32;8.43;;;7.30;;
25437;SDS011;13364;49.084;9.978;2022-07-23T07:09:59;11.23;;;7.50;;
25437;SDS011;13364;49.084;9.978;2022-07-23T07:12:27;8.70;;;7.03;;
25437;SDS011;13364;49.084;9.978;2022-07-23T07:14:54;10.15;;;8.18;;
25437;SDS011;13364;49.084;9.978;2022-07-23T07:17:23;8.65;;;7.25;;
25437;SDS011;13364;49.084;9.978;2022-07-23T07:19:50;9.65;;;7.97;;
25437;SDS011;13364;49.084;9.978;2022-07-23T07:22:17;9.55;;;7.22;;
25437;SDS011;13364;49.084;9.978;2022-07-23T07:24:44;9.57;;;8.05;;
25437;SDS011;13364;49.084;9.978;2022-07-23T07:27:11;10.68;;;7.93;;
25437;SDS011;13364;49.084;9.978;2022-07-23T07:29:38;8.50;;;7.65;;
25437;SDS011;13364;49.084;9.978;2022-07-23T07:32:05;9.13;;;7.93;;
25437;SDS011;13364;49.084;9.978;2022-07-23T07:34:32;9.95;;;8.20;;
25437;SDS011;13364;49.084;9.978;2022-07-23T07:36:59;9.95;;;8.10;;
25437;SDS011;13364;49.084;9.978;2022-07-23T07:39:26;9.60;;;8.18;;
25437;SDS011;13364;49.084;9.978;2022-07-23T07:41:53;10.88;;;8.13;;
25437;SDS011;13364;49.084;9.978;2022-07-23T07:44:21;10.48;;;7.80;;
25437;SDS011;13364;49.084;9.978;2022-07-23T07:46:48;7.50;;;6.80;;
25437;SDS011;13364;49.084;9.978;2022-07-23T07:49:15;7.60;;;6.75;;
25437;SDS011;13364;49.084;9.978;2022-07-23T07:51:47;9.52;;;6.03;;
25437;SDS011;13364;49.084;9.978;2022-07-23T07:54:14;7.47;;;6.72;;
25437;SDS011;13364;49.084;9.978;2022-07-23T07:56:42;7.85;;;6.88;;
25437;SDS011;13364;49.084;9.978;2022-07-23T07:59:09;7.72;;;7.00;;
25437;SDS011;13364;49.084;9.978;2022-07-23T08:01:37;12.98;;;7.50;;
25437;SDS011;13364;49.084;9.978;2022-07-23T08:04:04;9.55;;;7.00;;
25437;SDS011;13364;49.084;9.978;2022-07-23T08:10:56;7.75;;;7.05;;
25437;SDS011;13364;49.084;9.978;2022-07-23T08:13:23;10.88;;;7.85;;
25437;SDS011;13364;49.084;9.978;2022-07-23T08:15:50;8.80;;;7.90;;
25437;SDS011;13364;49.084;9.978;2022-07-23T08:18:19;10.73;;;8.50;;
25437;SDS011;13364;49.084;9.978;2022-07-23T08:20:47;13.20;;;9.10;;
25437;SDS011;13364;49.084;9.978;2022-07-23T08:23:14;11.85;;;9.65;;
25437;SDS011;13364;49.084;9.978;2022-07-23T08:25:45;10.82;;;9.73;;
25437;SDS011;13364;49.084;9.978;2022-07-23T08:28:13;12.30;;;9.27;;
25437;SDS011;13364;49.084;9.978;2022-07-23T08:30:42;10.32;;;9.30;;
25437;SDS011;13364;49.084;9.978;2022-07-23T08:36:30;12.25;;;9.10;;
25437;SDS011;13364;49.084;9.978;2022-07-23T08:38:58;11.02;;;8.90;;
25437;SDS011;13364;49.084;9.978;2022-07-23T08:41:26;9.25;;;8.25;;
25437;SDS011;13364;49.084;9.978;2022-07-23T08:43:53;8.80;;;7.90;;
25437;SDS011;13364;49.084;9.978;2022-07-23T08:46:20;10.95;;;9.00;;
25437;SDS011;13364;49.084;9.978;2022-07-23T08:48:49;9.32;;;8.40;;
25437;SDS011;13364;49.084;9.978;2022-07-23T08:51:17;10.48;;;8.07;;
25437;SDS011;13364;49.084;9.978;2022-07-23T08:53:44;8.90;;;8.07;;
25437;SDS011;13364;49.084;9.978;2022-07-23T08:56:13;8.82;;;8.00;;
25437;SDS011;13364;49.084;9.978;2022-07-23T08:58:40;7.53;;;6.82;;
25437;SDS011;13364;49.084;9.978;2022-07-23T09:01:07;8.52;;;7.68;;
25437;SDS011;13364;49.084;9.978;2022-07-23T09:03:35;7.28;;;6.57;;
25437;SDS011;13364;49.084;9.978;2022-07-23T09:06:04;8.32;;;7.25;;
25437;SDS011;13364;49.084;9.978;2022-07-23T09:08:37;10.30;;;7.05;;
25437;SDS011;13364;49.084;9.978;2022-07-23T09:11:06;9.45;;;7.18;;
25437;SDS011;13364;49.084;9.978;2022-07-23T09:13:41;7.95;;;7.15;;
25437;SDS011;13364;49.084;9.978;2022-07-23T09:16:13;7.63;;;6.93;;
25437;SDS011;13364;49.084;9.978;2022-07-23T09:18:50;8.48;;;7.10;;
25437;SDS011;13364;49.084;9.978;2022-07-23T09:21:27;7.55;;;6.85;;
25437;SDS011;13364;49.084;9.978;2022-07-23T09:24:05;7.38;;;6.68;;
25437;SDS011;13364;49.084;9.978;2022-07-23T09:26:35;7.40;;;6.03;;
25437;SDS011;13364;49.084;9.978;2022-07-23T09:29:08;8.43;;;6.82;;
25437;SDS011;13364;49.084;9.978;2022-07-23T09:34:10;7.85;;;7.05;;
25437;SDS011;13364;49.084;9.978;2022-07-23T09:36:42;9.73;;;7.60;;
25437;SDS011;13364;49.084;9.978;2022-07-23T09:39:11;12.25;;;9.25;;
25437;SDS011;13364;49.084;9.978;2022-07-23T09:41:41;8.80;;;7.93;;
25437;SDS011;13364;49.084;9.978;2022-07-23T09:44:14;7.88;;;6.55;;
25437;SDS011;13364;49.084;9.978;2022-07-23T09:46:45;10.15;;;6.75;;
25437;SDS011;13364;49.084;9.978;2022-07-23T09:49:18;7.63;;;6.88;;
25437;SDS011;13364;49.084;9.978;2022-07-23T09:51:48;8.75;;;6.93;;
25437;SDS011;13364;49.084;9.978;2022-07-23T09:56:58;7.88;;;6.78;;
25437;SDS011;13364;49.084;9.978;2022-07-23T09:59:28;7.60;;;6.90;;
25437;SDS011;13364;49.084;9.978;2022-07-23T10:01:57;7.22;;;6.45;;
25437;SDS011;13364;49.084;9.978;2022-07-23T10:04:28;7.90;;;6.43;;
25437;SDS011;13364;49.084;9.978;2022-07-23T10:07:17;7.53;;;6.72;;
25437;SDS011;13364;49.084;9.978;2022-07-23T10:10:07;8.10;;;6.97;;
25437;SDS011;13364;49.084;9.978;2022-07-23T10:13:07;7.20;;;6.50;;
25437;SDS011;13364;49.084;9.978;2022-07-23T10:15:54;7.47;;;6.30;;
25437;SDS011;13364;49.084;9.978;2022-07-23T10:18:21;7.78;;;7.05;;
25437;SDS011;13364;49.084;9.978;2022-07-23T10:20:49;8.05;;;6.55;;
25437;SDS011;13364;49.084;9.978;2022-07-23T10:35:36;6.55;;;5.82;;
25437;SDS011;13364;49.084;9.978;2022-07-23T10:38:15;7.00;;;6.35;;
25437;SDS011;13364;49.084;9.978;2022-07-23T10:40:53;7.60;;;6.75;;
25437;SDS011;13364;49.084;9.978;2022-07-23T10:43:24;7.43;;;6.72;;
25437;SDS011;13364;49.084;9.978;2022-07-23T10:45:53;6.57;;;5.90;;
25437;SDS011;13364;49.084;9.978;2022-07-23T10:48:22;7.37;;;6.63;;
25437;SDS011;13364;49.084;9.978;2022-07-23T10:51:07;6.00;;;5.50;;
25437;SDS011;13364;49.084;9.978;2022-07-23T10:56:16;6.43;;;5.38;;
25437;SDS011;13364;49.084;9.978;2022-07-23T10:59:05;5.68;;;5.13;;
25437;SDS011;13364;49.084;9.978;2022-07-23T11:01:38;5.93;;;5.32;;
25437;SDS011;13364;49.084;9.978;2022-07-23T11:12:31;5.95;;;5.05;;
25437;SDS011;13364;49.084;9.978;2022-07-23T11:17:24;5.50;;;5.00;;
25437;SDS011;13364;49.084;9.978;2022-07-23T11:22:35;8.27;;;5.50;;
25437;SDS011;13364;49.084;9.978;2022-07-23T11:25:03;5.80;;;5.30;;
25437;SDS011;13364;49.084;9.978;2022-07-23T11:27:43;6.80;;;6.20;;
25437;SDS011;13364;49.084;9.978;2022-07-23T11:32:54;6.15;;;5.50;;
25437;SDS011;13364;49.084;9.978;2022-07-23T11:35:42;6.15;;;5.45;;
25437;SDS011;13364;49.084;9.978;2022-07-23T11:38:20;6.28;;;5.45;;
25437;SDS011;13364;49.084;9.978;2022-07-23T11:40:53;5.95;;;5.35;;
25437;SDS011;13364;49.084;9.978;2022-07-23T11:43:23;6.00;;;5.50;;
25437;SDS011;13364;49.084;9.978;2022-07-23T11:45:56;7.75;;;5.22;;
25437;SDS011;13364;49.084;9.978;2022-07-23T11:52:05;5.85;;;5.20;;
25437;SDS011;13364;49.084;9.978;2022-07-23T11:54:46;7.60;;;5.10;;
25437;SDS011;13364;49.084;9.978;2022-07-23T11:57:18;6.10;;;5.60;;
25437;SDS011;13364;49.084;9.978;2022-07-23T11:59:47;5.97;;;5.47;;
25437;SDS011;13364;49.084;9.978;2022-07-23T12:02:19;6.45;;;5.85;;
25437;SDS011;13364;49.084;9.978;2022-07-23T12:04:48;6.15;;;5.65;;
25437;SDS011;13364;49.084;9.978;2022-07-23T12:10:04;6.85;;;6.15;;
25437;SDS011;13364;49.084;9.978;2022-07-23T12:12:38;6.65;;;6.00;;
25437;SDS011;13364;49.084;9.978;2022-07-23T12:15:07;6.25;;;5.65;;
25437;SDS011;13364;49.084;9.978;2022-07-23T12:17:36;6.32;;;5.72;;
25437;SDS011;13364;49.084;9.978;2022-07-23T12:20:05;6.43;;;5.77;;
25437;SDS011;13364;49.084;9.978;2022-07-23T12:22:35;6.13;;;5.57;;
25437;SDS011;13364;49.084;9.978;2022-07-23T12:27:39;5.95;;;5.35;;
25437;SDS011;13364;49.084;9.978;2022-07-23T12:30:19;5.72;;;5.22;;
25437;SDS011;13364;49.084;9.978;2022-07-23T12:32:59;5.75;;;5.25;;
25437;SDS011;13364;49.084;9.978;2022-07-23T12:35:31;6.35;;;5.22;;
25437;SDS011;13364;49.084;9.978;2022-07-23T12:38:02;6.07;;;5.45;;
25437;SDS011;13364;49.084;9.978;2022-07-23T12:40:35;7.93;;;5.30;;
25437;SDS011;13364;49.084;9.978;2022-07-23T12:43:08;6.05;;;5.13;;
25437;SDS011;13364;49.084;9.978;2022-07-23T12:45:44;5.28;;;4.88;;
25437;SDS011;13364;49.084;9.978;2022-07-23T12:48:17;6.70;;;5.65;;
25437;SDS011;13364;49.084;9.978;2022-07-23T12:53:52;5.68;;;5.18;;
25437;SDS011;13364;49.084;9.978;2022-07-23T12:56:36;6.20;;;5.00;;
25437;SDS011;13364;49.084;9.978;2022-07-23T12:59:35;6.15;;;5.35;;
25437;SDS011;13364;49.084;9.978;2022-07-23T13:02:07;6.10;;;5.50;;
25437;SDS011;13364;49.084;9.978;2022-07-23T13:04:36;6.50;;;5.93;;
25437;SDS011;13364;49.084;9.978;2022-07-23T13:07:06;5.57;;;5.07;;
25437;SDS011;13364;49.084;9.978;2022-07-23T13:09:34;7.00;;;5.90;;
25437;SDS011;13364;49.084;9.978;2022-07-23T13:12:08;6.55;;;6.05;;
25437;SDS011;13364;49.084;9.978;2022-07-23T13:14:40;7.03;;;5.60;;
25437;SDS011;13364;49.084;9.978;2022-07-23T13:17:28;6.35;;;5.72;;
25437;SDS011;13364;49.084;9.978;2022-07-23T13:19:55;7.03;;;6.40;;
25437;SDS011;13364;49.084;9.978;2022-07-23T13:22:42;7.15;;;6.45;;
25437;SDS011;13364;49.084;9.978;2022-07-23T13:25:09;8.07;;;6.13;;
25437;SDS011;13364;49.084;9.978;2022-07-23T13:27:37;5.82;;;5.43;;
25437;SDS011;13364;49.084;9.978;2022-07-23T13:30:06;7.63;;;6.50;;
25437;SDS011;13364;49.084;9.978;2022-07-23T13:32:38;8.95;;;6.25;;
25437;SDS011;13364;49.084;9.978;2022-07-23T13:35:05;7.28;;;6.63;;
25437;SDS011;13364;49.084;9.978;2022-07-23T13:37:36;6.88;;;6.22;;
25437;SDS011;13364;49.084;9.978;2022-07-23T13:40:04;7.40;;;6.70;;
25437;SDS011;13364;49.084;9.978;2022-07-23T13:42:51;7.05;;;6.38;;
25437;SDS011;13364;49.084;9.978;2022-07-23T13:45:19;10.75;;;7.50;;
25437;SDS011;13364;49.084;9.978;2022-07-23T13:47:47;8.57;;;7.50;;
25437;SDS011;13364;49.084;9.978;2022-07-23T13:50:14;7.90;;;7.18;;
25437;SDS011;13364;49.084;9.978;2022-07-23T13:52:46;6.95;;;6.35;;
25437;SDS011;13364;49.084;9.978;2022-07-23T13:55:14;8.50;;;7.70;;
25437;SDS011;13364;49.084;9.978;2022-07-23T13:57:41;8.27;;;7.30;;
25437;SDS011;13364;49.084;9.978;2022-07-23T14:00:11;8.38;;;7.30;;
25437;SDS011;13364;49.084;9.978;2022-07-23T14:03:01;10.30;;;7.28;;
25437;SDS011;13364;49.084;9.978;2022-07-23T14:05:29;7.50;;;6.80;;
25437;SDS011;13364;49.084;9.978;2022-07-23T14:07:56;8.52;;;7.72;;
25437;SDS011;13364;49.084;9.978;2022-07-23T14:10:24;10.98;;;7.25;;
25437;SDS011;13364;49.084;9.978;2022-07-23T14:12:52;8.68;;;7.78;;
25437;SDS011;13364;49.084;9.978;2022-07-23T14:15:23;7.97;;;7.18;;
25437;SDS011;13364;49.084;9.978;2022-07-23T14:20:22;8.90;;;8.05;;
25437;SDS011;13364;49.084;9.978;2022-07-23T14:22:50;9.38;;;8.00;;
25437;SDS011;13364;49.084;9.978;2022-07-23T14:25:18;7.82;;;7.13;;
25437;SDS011;13364;49.084;9.978;2022-07-23T14:27:45;8.00;;;7.30;;
25437;SDS011;13364;49.084;9.978;2022-07-23T14:30:13;8.30;;;7.50;;
25437;SDS011;13364;49.084;9.978;2022-07-23T14:32:41;8.07;;;7.28;;
25437;SDS011;13364;49.084;9.978;2022-07-23T14:35:08;7.45;;;6.60;;
25437;SDS011;13364;49.084;9.978;2022-07-23T14:37:36;7.85;;;6.97;;
25437;SDS011;13364;49.084;9.978;2022-07-23T14:40:06;7.55;;;6.95;;
25437;SDS011;13364;49.084;9.978;2022-07-23T14:42:33;7.65;;;6.80;;
25437;SDS011;13364;49.084;9.978;2022-07-23T14:45:01;7.70;;;6.88;;
25437;SDS011;13364;49.084;9.978;2022-07-23T14:47:36;7.90;;;6.15;;
25437;SDS011;13364;49.084;9.978;2022-07-23T14:50:05;8.05;;;6.43;;
25437;SDS011;13364;49.084;9.978;2022-07-23T14:52:33;8.05;;;7.00;;
25437;SDS011;13364;49.084;9.978;2022-07-23T14:55:00;6.50;;;6.00;;
25437;SDS011;13364;49.084;9.978;2022-07-23T14:57:29;7.57;;;6.30;;
25437;SDS011;13364;49.084;9.978;2022-07-23T14:59:56;6.72;;;5.97;;
25437;SDS011;13364;49.084;9.978;2022-07-23T15:02:23;6.80;;;5.85;;
25437;SDS011;13364;49.084;9.978;2022-07-23T15:04:51;6.20;;;5.70;;
25437;SDS011;13364;49.084;9.978;2022-07-23T15:07:18;7.50;;;6.35;;
25437;SDS011;13364;49.084;9.978;2022-07-23T15:09:46;7.95;;;6.20;;
25437;SDS011;13364;49.084;9.978;2022-07-23T15:12:13;6.10;;;5.55;;
25437;SDS011;13364;49.084;9.978;2022-07-23T15:14:40;7.50;;;6.65;;
25437;SDS011;13364;49.084;9.978;2022-07-23T15:17:10;6.88;;;6.22;;
25437;SDS011;13364;49.084;9.978;2022-07-23T15:19:40;7.00;;;6.15;;
25437;SDS011;13364;49.084;9.978;2022-07-23T15:22:07;7.47;;;6.82;;
25437;SDS011;13364;49.084;9.978;2022-07-23T15:24:34;7.25;;;6.55;;
25437;SDS011;13364;49.084;9.978;2022-07-23T15:27:01;6.75;;;6.15;;
25437;SDS011;13364;49.084;9.978;2022-07-23T15:29:30;6.80;;;6.20;;
25437;SDS011;13364;49.084;9.978;2022-07-23T15:31:57;8.30;;;7.50;;
25437;SDS011;13364;49.084;9.978;2022-07-23T15:34:25;7.25;;;6.63;;
25437;SDS011;13364;49.084;9.978;2022-07-23T15:36:53;8.10;;;7.15;;
25437;SDS011;13364;49.084;9.978;2022-07-23T15:39:21;7.70;;;6.72;;
25437;SDS011;13364;49.084;9.978;2022-07-23T15:41:48;12.77;;;7.72;;
25437;SDS011;13364;49.084;9.978;2022-07-23T15:44:15;8.80;;;7.25;;
25437;SDS011;13364;49.084;9.978;2022-07-23T15:46:55;11.50;;;7.82;;
25437;SDS011;13364;49.084;9.978;2022-07-23T15:49:24;8.70;;;7.68;;
25437;SDS011;13364;49.084;9.978;2022-07-23T15:51:52;8.45;;;6.80;;
25437;SDS011;13364;49.084;9.978;2022-07-23T15:54:21;8.35;;;7.30;;
25437;SDS011;13364;49.084;9.978;2022-07-23T15:56:48;8.30;;;7.50;;
25437;SDS011;13364;49.084;9.978;2022-07-23T15:59:16;7.80;;;7.20;;
25437;SDS011;13364;49.084;9.978;2022-07-23T16:01:44;9.73;;;7.78;;
25437;SDS011;13364;49.084;9.978;2022-07-23T16:04:11;8.38;;;7.35;;
25437;SDS011;13364;49.084;9.978;2022-07-23T16:06:40;8.20;;;7.50;;